aviador You're here:

KBWW Decoded Metar

in
Report Time2018-05-25 20:35:00
UTC Time2018-05-25 20:45:51
Flight Rules vfr VFR
Wind290° at 17 Gusting to 29 kt
W.Decomp.*RWY 31: 16.0 kt HW 5.8 kt LCW
W.Rank290° ranks 4
Current wind is above 290° avg. (13.0)
Visibility9999 m
Phenomena:N/A
Clouds:N/A
Expected CloudBase > 6,800 ft AGL from Temp-Dew spread
CeilingNone
Temp27°C
Dew Point10°C (34% RH)
Heat Index26.6°C
AAT20.9°C
QNH1007 hPa
Raw Report
METAR KBWW 252035Z AUTO 29017G29KT 10SM CLR 27/10 A2975 RMK AO2=

Extra information for KBWW:More info

Social comments